Time;durP1;ratioP1;P1;durP2;ratioP2;P2;SDS_P1;SDS_P2;PMS_P1;PMS_P2;Temp;Humidity;BMP_temperature;BMP_pressure;BME280_temperature;BME280_humidity;BME280_pressure;Samples;Min_cycle;Max_cycle;Signal;HPM_P1;HPM_P2
2023/08/05 00:00:11;;;;;;;2.03;0.90;;;22.30;99.90;;;;;;5098500;27;45236;-61
2023/08/05 00:02:38;;;;;;;0.93;0.82;;;22.30;99.90;;;;;;5102274;27;45209;-61
2023/08/05 00:05:06;;;;;;;2.40;0.70;;;22.30;99.90;;;;;;5107075;27;45269;-61
2023/08/05 00:07:34;;;;;;;0.98;0.60;;;22.30;99.90;;;;;;5102401;27;45125;-64
2023/08/05 00:10:01;;;;;;;1.02;0.90;;;22.30;99.90;;;;;;5102614;27;45296;-61
2023/08/05 00:12:28;;;;;;;2.10;1.00;;;22.30;99.90;;;;;;5101046;27;45361;-62
2023/08/05 00:14:55;;;;;;;1.85;0.90;;;22.20;99.90;;;;;;5107920;27;47281;-61
2023/08/05 00:17:21;;;;;;;1.17;0.70;;;22.30;99.90;;;;;;5101968;27;45285;-61
2023/08/05 00:19:50;;;;;;;0.93;0.80;;;22.30;99.90;;;;;;5101922;27;45380;-62
2023/08/05 00:22:17;;;;;;;1.45;0.90;;;22.30;99.90;;;;;;5106507;27;45119;-61
2023/08/05 00:24:45;;;;;;;1.02;0.85;;;22.20;99.90;;;;;;5106244;27;46340;-62
2023/08/05 00:27:12;;;;;;;1.40;0.82;;;22.30;99.90;;;;;;5092983;27;45259;-61
2023/08/05 00:29:39;;;;;;;1.08;0.90;;;22.30;99.90;;;;;;5103374;27;45353;-61
2023/08/05 00:32:06;;;;;;;0.90;0.77;;;22.30;99.90;;;;;;5107124;27;45324;-61
2023/08/05 00:34:34;;;;;;;1.35;0.65;;;22.30;99.90;;;;;;5110504;27;46049;-61
2023/08/05 00:37:00;;;;;;;1.13;0.90;;;22.30;99.90;;;;;;5102120;27;45552;-62
2023/08/05 00:39:27;;;;;;;1.25;1.00;;;22.30;99.90;;;;;;5102830;27;45313;-59
2023/08/05 00:41:55;;;;;;;1.67;0.80;;;22.30;99.90;;;;;;5103412;27;45225;-61
2023/08/05 00:44:23;;;;;;;1.35;0.90;;;22.30;99.90;;;;;;5104632;27;47198;-61
2023/08/05 00:46:50;;;;;;;1.08;0.90;;;22.30;99.90;;;;;;5110159;27;45192;-62
2023/08/05 00:49:17;;;;;;;0.80;0.80;;;22.30;99.90;;;;;;5105246;27;45152;-61
2023/08/05 00:51:43;;;;;;;0.80;0.60;;;22.30;99.90;;;;;;5105402;27;45450;-61
2023/08/05 00:54:11;;;;;;;0.75;0.70;;;22.30;99.90;;;;;;5105772;27;45390;-61
2023/08/05 00:56:39;;;;;;;0.75;0.70;;;22.30;99.90;;;;;;5106517;27;45220;-61
2023/08/05 00:59:07;;;;;;;1.42;0.82;;;22.30;99.90;;;;;;5104907;27;45131;-62
2023/08/05 01:01:34;;;;;;;1.42;0.95;;;22.30;99.90;;;;;;5110062;27;45242;-61
2023/08/05 01:04:00;;;;;;;1.48;0.88;;;22.30;99.90;;;;;;5105649;27;47271;-60
2023/08/05 01:06:28;;;;;;;1.38;0.80;;;22.30;99.90;;;;;;5105191;27;45051;-61
2023/08/05 01:08:56;;;;;;;2.70;0.80;;;22.30;99.90;;;;;;5105459;27;45090;-61
2023/08/05 01:11:24;;;;;;;1.35;1.02;;;22.30;99.90;;;;;;5103906;27;45307;-61
2023/08/05 01:13:50;;;;;;;1.60;0.80;;;22.30;99.90;;;;;;5110109;27;47245;-61
2023/08/05 01:16:19;;;;;;;1.15;0.77;;;22.30;99.90;;;;;;5109616;27;45274;-61
2023/08/05 01:18:46;;;;;;;1.10;0.80;;;22.30;99.90;;;;;;5105486;27;45197;-61
2023/08/05 01:21:30;;;;;;;2.97;0.93;;;22.20;99.90;;;;;;5104879;27;45378;-61
2023/08/05 01:24:11;;;;;;;0.70;0.65;;;22.20;99.90;;;;;;5104150;27;48413;-61
2023/08/05 01:26:40;;;;;;;0.70;0.63;;;22.20;99.90;;;;;;5110276;27;45227;-61
2023/08/05 01:29:08;;;;;;;1.35;0.68;;;22.20;99.90;;;;;;5100178;27;45184;-62
2023/08/05 01:31:36;;;;;;;0.93;0.60;;;22.20;99.90;;;;;;5104527;27;45339;-60
2023/08/05 01:34:03;;;;;;;2.17;0.88;;;22.20;99.90;;;;;;5105145;27;47593;-61
2023/08/05 01:36:31;;;;;;;1.23;0.82;;;22.20;99.90;;;;;;5105231;27;45332;-61
2023/08/05 01:38:57;;;;;;;0.80;0.80;;;22.20;99.90;;;;;;5105316;27;45144;-61
2023/08/05 01:41:25;;;;;;;0.88;0.70;;;22.20;99.90;;;;;;5111336;27;45098;-61
2023/08/05 01:43:53;;;;;;;1.15;0.80;;;22.20;99.90;;;;;;5108524;27;46952;-61
2023/08/05 01:46:19;;;;;;;0.85;0.70;;;22.30;99.90;;;;;;5104513;27;45239;-62
2023/08/05 01:48:46;;;;;;;0.70;0.70;;;22.30;99.90;;;;;;5105272;27;45341;-61
2023/08/05 01:51:13;;;;;;;0.80;0.55;;;22.30;99.90;;;;;;5103969;27;45151;-61
2023/08/05 01:53:40;;;;;;;0.70;0.70;;;22.30;99.90;;;;;;5102617;27;47151;-62
2023/08/05 01:56:06;;;;;;;0.75;0.73;;;22.20;99.90;;;;;;5104460;27;45248;-61
2023/08/05 01:58:33;;;;;;;0.77;0.65;;;22.30;99.90;;;;;;5107304;27;45307;-61
2023/08/05 02:01:01;;;;;;;1.45;0.88;;;22.30;99.90;;;;;;5103275;27;45160;-61
2023/08/05 02:03:28;;;;;;;2.35;0.75;;;22.30;99.90;;;;;;5104665;27;47236;-61
2023/08/05 02:05:55;;;;;;;0.57;0.57;;;22.30;99.90;;;;;;5104679;27;45148;-61
2023/08/05 02:08:22;;;;;;;1.25;0.70;;;22.30;99.90;;;;;;5110161;27;45098;-61
2023/08/05 02:10:49;;;;;;;0.85;0.63;;;22.30;99.90;;;;;;5090149;27;45279;-61
2023/08/05 02:13:16;;;;;;;1.25;0.80;;;22.30;99.90;;;;;;5108035;27;48075;-61
2023/08/05 02:15:42;;;;;;;0.50;0.50;;;22.30;99.90;;;;;;5104051;27;45654;-61
2023/08/05 02:18:11;;;;;;;0.70;0.70;;;22.30;99.90;;;;;;5104641;27;45111;-60
2023/08/05 02:20:37;;;;;;;0.70;0.65;;;22.30;99.90;;;;;;5102736;27;45157;-60
2023/08/05 02:23:04;;;;;;;1.45;0.80;;;22.30;99.90;;;;;;5107929;27;46275;-61
2023/08/05 02:25:31;;;;;;;0.60;0.60;;;22.30;99.90;;;;;;5107512;27;45106;-61
2023/08/05 02:27:57;;;;;;;3.50;0.93;;;22.30;99.90;;;;;;5103165;27;45321;-61
2023/08/05 02:30:24;;;;;;;0.93;0.73;;;22.20;99.90;;;;;;5111980;27;45249;-61
2023/08/05 02:32:51;;;;;;;2.60;0.75;;;22.20;99.90;;;;;;5107043;27;45238;-61
2023/08/05 02:35:19;;;;;;;0.98;0.80;;;22.20;99.90;;;;;;5114741;27;45332;-60
2023/08/05 02:37:46;;;;;;;0.80;0.70;;;22.20;99.90;;;;;;5106965;27;45298;-62
2023/08/05 02:40:13;;;;;;;1.65;0.70;;;22.20;99.90;;;;;;5104772;27;45304;-62
2023/08/05 02:42:39;;;;;;;0.70;0.70;;;22.20;99.90;;;;;;5103126;27;46842;-60
2023/08/05 02:45:07;;;;;;;0.90;0.80;;;22.20;99.90;;;;;;5102768;27;45074;-61
2023/08/05 02:47:34;;;;;;;1.50;0.80;;;22.20;99.90;;;;;;5103292;27;45218;-61
2023/08/05 02:50:01;;;;;;;1.13;0.80;;;22.20;99.90;;;;;;5104089;27;45288;-62
2023/08/05 02:52:29;;;;;;;0.88;0.70;;;22.20;99.90;;;;;;5113375;27;46326;-61
2023/08/05 02:54:56;;;;;;;0.98;0.80;;;22.20;99.90;;;;;;5107707;27;45606;-61
2023/08/05 02:57:22;;;;;;;0.80;0.70;;;22.20;99.90;;;;;;5096429;27;45224;-61
2023/08/05 02:59:49;;;;;;;0.80;0.65;;;22.20;99.90;;;;;;5103549;27;45238;-62
2023/08/05 03:02:16;;;;;;;1.70;0.77;;;22.20;99.90;;;;;;5105542;27;45428;-61
2023/08/05 03:04:43;;;;;;;1.00;0.70;;;22.20;99.90;;;;;;5103952;27;45220;-61
2023/08/05 03:07:10;;;;;;;0.68;0.65;;;22.20;99.90;;;;;;5106388;27;45261;-61
2023/08/05 03:09:38;;;;;;;1.23;0.75;;;22.20;99.90;;;;;;5105217;27;45206;-61
2023/08/05 03:12:08;;;;;;;0.85;0.80;;;22.20;99.90;;;;;;5103267;27;47944;-61
2023/08/05 03:14:35;;;;;;;0.70;0.70;;;22.20;99.90;;;;;;5103833;27;45134;-61
2023/08/05 03:17:02;;;;;;;3.08;1.30;;;22.20;99.90;;;;;;5103566;27;45255;-61
2023/08/05 03:19:28;;;;;;;0.70;0.70;;;22.20;99.90;;;;;;5103807;27;45138;-61
2023/08/05 03:21:55;;;;;;;4.03;0.77;;;22.20;99.90;;;;;;5106842;27;46006;-61
2023/08/05 03:24:22;;;;;;;0.77;0.63;;;22.20;99.90;;;;;;5102933;27;45269;-61
2023/08/05 03:26:50;;;;;;;2.58;1.02;;;22.20;99.90;;;;;;5103374;27;45281;-62
2023/08/05 03:29:17;;;;;;;2.45;0.90;;;22.20;99.90;;;;;;5102261;27;45155;-61
2023/08/05 03:31:44;;;;;;;0.85;0.70;;;22.20;99.90;;;;;;5109165;27;45274;-62
2023/08/05 03:34:10;;;;;;;0.88;0.68;;;22.20;99.90;;;;;;5103804;27;45215;-61
2023/08/05 03:36:37;;;;;;;0.93;0.70;;;22.20;99.90;;;;;;5102673;27;45229;-61
2023/08/05 03:39:05;;;;;;;1.23;0.70;;;22.20;99.90;;;;;;5103602;27;45208;-61
2023/08/05 03:41:31;;;;;;;1.20;0.90;;;22.20;99.90;;;;;;5112799;27;46227;-61
2023/08/05 03:44:01;;;;;;;0.75;0.70;;;22.20;99.90;;;;;;5104341;27;45117;-60
2023/08/05 03:46:28;;;;;;;0.88;0.68;;;22.20;99.90;;;;;;5102791;27;45184;-61
2023/08/05 03:48:55;;;;;;;1.35;0.80;;;22.20;99.90;;;;;;5102617;27;45306;-61
2023/08/05 03:51:22;;;;;;;1.95;0.80;;;22.20;99.90;;;;;;5107621;27;47471;-61
2023/08/05 03:53:49;;;;;;;1.52;0.80;;;22.20;99.90;;;;;;5111036;27;45627;-61
2023/08/05 03:56:19;;;;;;;0.65;0.60;;;22.20;99.90;;;;;;5102157;27;45102;-62
2023/08/05 03:58:46;;;;;;;3.50;0.80;;;22.20;99.90;;;;;;5117021;27;45194;-61
2023/08/05 04:01:16;;;;;;;1.42;0.70;;;22.20;99.90;;;;;;5102584;27;46281;-61
2023/08/05 04:03:43;;;;;;;1.08;0.70;;;22.10;99.90;;;;;;5093494;27;45265;-60
2023/08/05 04:06:11;;;;;;;1.05;0.80;;;22.10;99.90;;;;;;5074533;27;45318;-61
2023/08/05 04:08:39;;;;;;;1.05;0.80;;;22.20;99.90;;;;;;5085211;27;45355;-61
2023/08/05 04:11:06;;;;;;;0.70;0.70;;;22.20;99.90;;;;;;5081889;28;45266;-62
2023/08/05 04:13:34;;;;;;;2.15;0.80;;;22.20;99.90;;;;;;5077123;28;45269;-61
2023/08/05 04:16:03;;;;;;;1.23;0.80;;;22.20;99.90;;;;;;5080458;27;45398;-61
2023/08/05 04:18:32;;;;;;;1.20;0.95;;;22.20;99.90;;;;;;5074344;27;45162;-61
2023/08/05 04:20:58;;;;;;;1.30;0.88;;;22.20;99.90;;;;;;5092175;27;46237;-61
2023/08/05 04:23:26;;;;;;;0.70;0.70;;;22.20;99.90;;;;;;5091749;27;45229;-61
2023/08/05 04:25:52;;;;;;;1.60;0.95;;;22.20;99.90;;;;;;5083521;27;45336;-61
2023/08/05 04:28:19;;;;;;;0.88;0.68;;;22.20;99.90;;;;;;5084051;27;45277;-60
2023/08/05 04:30:48;;;;;;;2.33;0.85;;;22.20;99.90;;;;;;5086450;27;48031;-61
2023/08/05 04:33:15;;;;;;;0.88;0.80;;;22.20;99.90;;;;;;5077847;27;46136;-61
2023/08/05 04:35:47;;;;;;;1.75;0.88;;;22.20;99.90;;;;;;5093567;27;45412;-61
2023/08/05 04:38:14;;;;;;;2.30;0.88;;;22.20;99.90;;;;;;5083777;27;45298;-61
2023/08/05 04:40:41;;;;;;;0.82;0.82;;;22.20;99.90;;;;;;5077993;28;45149;-61
2023/08/05 04:43:08;;;;;;;1.27;0.70;;;22.20;99.90;;;;;;5082381;27;45121;-61
2023/08/05 04:45:35;;;;;;;1.23;0.82;;;22.20;99.90;;;;;;5063402;28;45320;-61
2023/08/05 04:48:04;;;;;;;1.08;0.80;;;22.20;99.90;;;;;;5085745;27;45111;-61
2023/08/05 04:50:31;;;;;;;0.70;0.60;;;22.20;99.90;;;;;;5082982;27;46470;-61
2023/08/05 04:52:59;;;;;;;1.63;0.63;;;22.20;99.90;;;;;;5068439;28;45312;-58
2023/08/05 04:55:25;;;;;;;0.73;0.70;;;22.20;99.90;;;;;;5089604;27;45327;-61
2023/08/05 04:57:53;;;;;;;1.55;0.80;;;22.20;99.90;;;;;;5084484;27;45257;-61
2023/08/05 05:00:20;;;;;;;1.40;0.70;;;22.20;99.90;;;;;;5086531;27;46355;-60
2023/08/05 05:02:48;;;;;;;1.15;0.90;;;22.20;99.90;;;;;;5106655;27;45110;-61
2023/08/05 05:05:15;;;;;;;1.00;0.75;;;22.20;99.90;;;;;;5105380;27;45275;-61
2023/08/05 05:07:42;;;;;;;1.65;0.80;;;22.20;99.90;;;;;;5104936;27;45409;-61
2023/08/05 05:10:10;;;;;;;2.22;1.00;;;22.20;99.90;;;;;;5104955;27;46203;-61
2023/08/05 05:12:37;;;;;;;1.90;0.90;;;22.20;99.90;;;;;;5112835;27;45302;-60
2023/08/05 05:15:05;;;;;;;2.50;0.90;;;22.20;99.90;;;;;;5105724;27;45295;-61
2023/08/05 05:17:34;;;;;;;1.73;0.70;;;22.10;99.90;;;;;;5107115;27;45162;-61
2023/08/05 05:20:01;;;;;;;2.13;0.85;;;22.10;99.90;;;;;;5106089;27;47974;-61
2023/08/05 05:22:28;;;;;;;2.17;0.80;;;22.10;99.90;;;;;;5104341;27;45256;-61
2023/08/05 05:24:54;;;;;;;1.38;0.85;;;22.10;99.90;;;;;;5104662;27;45146;-61
2023/08/05 05:27:23;;;;;;;0.77;0.70;;;22.10;99.90;;;;;;5105424;27;45361;-61
2023/08/05 05:29:49;;;;;;;0.85;0.70;;;22.20;99.90;;;;;;5107931;27;45172;-61
2023/08/05 05:32:16;;;;;;;0.93;0.65;;;22.20;99.90;;;;;;5104200;27;45101;-61
2023/08/05 05:34:43;;;;;;;1.52;0.82;;;22.20;99.90;;;;;;5105448;27;45243;-61
2023/08/05 05:37:10;;;;;;;1.23;0.90;;;22.20;99.90;;;;;;5104546;27;45240;-61
2023/08/05 05:39:37;;;;;;;1.10;0.73;;;22.20;99.90;;;;;;5110618;27;47318;-61
2023/08/05 05:42:04;;;;;;;0.80;0.80;;;22.20;99.90;;;;;;5110824;27;45326;-61
2023/08/05 05:44:32;;;;;;;1.98;0.80;;;22.20;99.90;;;;;;5111034;27;45106;-61
2023/08/05 05:46:59;;;;;;;2.55;0.70;;;22.20;99.90;;;;;;5111424;27;45259;-61
2023/08/05 05:49:26;;;;;;;1.27;1.00;;;22.20;99.90;;;;;;5103671;27;46275;-61
2023/08/05 05:51:52;;;;;;;0.93;0.80;;;22.20;99.90;;;;;;5105637;27;45227;-61
2023/08/05 05:54:19;;;;;;;1.02;0.70;;;22.20;99.90;;;;;;5106700;27;45071;-61
2023/08/05 05:56:46;;;;;;;1.17;0.70;;;22.20;99.90;;;;;;5108929;27;45272;-61
2023/08/05 05:59:13;;;;;;;0.80;0.80;;;22.20;99.90;;;;;;5113376;27;46370;-61
2023/08/05 06:01:41;;;;;;;1.50;1.05;;;22.20;99.90;;;;;;5103937;27;45337;-61
2023/08/05 06:04:09;;;;;;;1.23;1.08;;;22.20;99.90;;;;;;5104827;27;45118;-61
2023/08/05 06:06:36;;;;;;;1.58;0.80;;;22.20;99.90;;;;;;5101368;27;45422;-61
2023/08/05 06:09:04;;;;;;;1.40;0.98;;;22.20;99.90;;;;;;5105420;27;47406;-61
2023/08/05 06:11:32;;;;;;;0.80;0.80;;;22.20;99.90;;;;;;5101026;27;45262;-61
2023/08/05 06:13:59;;;;;;;2.38;1.00;;;22.20;99.90;;;;;;5106874;27;45163;-61
2023/08/05 06:16:26;;;;;;;1.10;0.98;;;22.20;99.90;;;;;;5105653;27;45446;-61
2023/08/05 06:18:54;;;;;;;3.05;1.05;;;22.20;99.90;;;;;;5110629;27;46550;-61
2023/08/05 06:21:21;;;;;;;0.73;0.73;;;22.20;99.90;;;;;;5102449;27;45190;-60
2023/08/05 06:23:48;;;;;;;0.85;0.70;;;22.20;99.90;;;;;;5103671;27;45181;-60
2023/08/05 06:26:14;;;;;;;1.02;0.90;;;22.20;99.90;;;;;;5118410;27;45473;-61
2023/08/05 06:28:41;;;;;;;3.30;1.13;;;22.20;99.90;;;;;;5106351;27;47955;-61
2023/08/05 06:31:08;;;;;;;1.25;0.90;;;22.20;99.90;;;;;;5103140;27;45293;-61
2023/08/05 06:33:35;;;;;;;3.42;1.45;;;22.20;99.90;;;;;;5107445;27;45326;-62
2023/08/05 06:36:03;;;;;;;1.60;0.80;;;22.20;99.90;;;;;;5107828;27;45195;-60
2023/08/05 06:38:30;;;;;;;1.77;1.02;;;22.20;99.90;;;;;;5102142;27;45161;-62
2023/08/05 06:40:56;;;;;;;1.13;0.90;;;22.20;99.90;;;;;;5107585;27;45205;-61
2023/08/05 06:43:24;;;;;;;1.02;0.80;;;22.20;99.90;;;;;;5101600;27;45235;-61
2023/08/05 06:45:51;;;;;;;1.35;0.85;;;22.20;99.90;;;;;;5105208;27;45383;-61
2023/08/05 06:48:18;;;;;;;4.95;0.98;;;22.20;99.90;;;;;;5102017;27;46291;-61
2023/08/05 06:50:44;;;;;;;1.20;0.90;;;22.20;99.90;;;;;;5102948;27;45312;-62
2023/08/05 06:53:13;;;;;;;1.55;1.02;;;22.20;99.90;;;;;;5105402;27;45246;-61
2023/08/05 06:55:39;;;;;;;1.70;1.13;;;22.20;99.90;;;;;;5103053;27;45185;-61
2023/08/05 06:58:06;;;;;;;1.40;0.88;;;22.20;99.90;;;;;;5109711;27;46351;-61
2023/08/05 07:00:33;;;;;;;1.10;1.00;;;22.20;99.90;;;;;;5118174;27;45210;-61
2023/08/05 07:03:01;;;;;;;1.00;0.90;;;22.20;99.90;;;;;;5109570;27;45421;-61
2023/08/05 07:05:29;;;;;;;1.00;0.90;;;22.20;99.90;;;;;;5106728;27;45247;-61
2023/08/05 07:07:56;;;;;;;1.00;0.90;;;22.20;99.90;;;;;;5102411;27;47143;-61
2023/08/05 07:10:24;;;;;;;2.17;1.00;;;22.20;99.90;;;;;;5103815;27;45137;-61
2023/08/05 07:12:51;;;;;;;1.65;0.90;;;22.20;99.90;;;;;;5107046;27;45306;-60
2023/08/05 07:15:17;;;;;;;1.70;1.10;;;22.30;99.90;;;;;;5102667;27;45477;-61
2023/08/05 07:17:44;;;;;;;1.15;0.98;;;22.20;99.90;;;;;;5105812;27;46207;-60
2023/08/05 07:20:12;;;;;;;1.45;0.95;;;22.20;99.90;;;;;;5108502;27;45307;-60
2023/08/05 07:22:38;;;;;;;2.33;1.10;;;22.20;99.90;;;;;;5102062;27;45493;-61
2023/08/05 07:25:06;;;;;;;1.15;0.90;;;22.20;99.90;;;;;;5102797;27;45256;-60
2023/08/05 07:27:34;;;;;;;0.80;0.70;;;22.30;99.90;;;;;;5108569;27;45332;-61
2023/08/05 07:30:01;;;;;;;2.25;1.00;;;22.20;99.90;;;;;;5110421;27;45643;-60
2023/08/05 07:32:30;;;;;;;1.67;0.90;;;22.20;99.90;;;;;;5105261;27;45256;-62
2023/08/05 07:34:56;;;;;;;22.30;2.70;;;22.20;99.90;;;;;;5104192;27;45264;-61
2023/08/05 07:37:24;;;;;;;6.28;1.50;;;22.30;99.90;;;;;;5100601;27;47196;-61
2023/08/05 07:39:51;;;;;;;12.88;1.70;;;22.30;99.90;;;;;;5108515;27;45190;-60
2023/08/05 07:42:20;;;;;;;4.97;1.00;;;22.30;99.90;;;;;;5101869;27;45291;-61
2023/08/05 07:44:51;;;;;;;5.88;1.48;;;22.30;99.90;;;;;;5111589;27;45252;-60
2023/08/05 07:47:17;;;;;;;3.63;1.20;;;22.30;99.90;;;;;;5111141;27;46365;-60
2023/08/05 07:49:45;;;;;;;4.50;1.20;;;22.30;99.90;;;;;;5116324;27;45197;-61
2023/08/05 07:52:12;;;;;;;4.75;1.20;;;22.30;99.90;;;;;;5100586;27;45099;-60
2023/08/05 07:54:39;;;;;;;1.85;1.10;;;22.30;99.90;;;;;;5103288;27;45347;-61
2023/08/05 07:57:07;;;;;;;3.55;1.20;;;22.30;99.90;;;;;;5106372;27;46261;-60
2023/08/05 07:59:34;;;;;;;2.47;0.90;;;22.30;99.90;;;;;;5109159;27;45614;-61
2023/08/05 08:02:02;;;;;;;4.13;1.15;;;22.30;99.90;;;;;;5105245;27;45383;-61
2023/08/05 08:04:30;;;;;;;2.38;1.30;;;22.30;99.90;;;;;;5106837;27;45155;-60
2023/08/05 08:06:57;;;;;;;4.32;1.00;;;22.30;99.90;;;;;;5102269;27;45424;-62
2023/08/05 08:09:24;;;;;;;2.72;1.20;;;22.30;99.90;;;;;;5099207;27;45182;-61
2023/08/05 08:11:50;;;;;;;2.83;1.10;;;22.30;99.90;;;;;;5112239;27;45222;-61
2023/08/05 08:14:17;;;;;;;4.28;1.10;;;22.40;99.90;;;;;;5104599;27;45295;-61
2023/08/05 08:16:44;;;;;;;1.60;1.10;;;22.40;99.90;;;;;;5104505;27;46329;-59
2023/08/05 08:19:13;;;;;;;2.00;1.10;;;22.40;99.90;;;;;;5104612;27;45625;-61
2023/08/05 08:21:40;;;;;;;1.55;1.00;;;22.40;99.90;;;;;;5105227;27;45323;-61
2023/08/05 08:24:08;;;;;;;1.45;1.05;;;22.40;99.90;;;;;;5098185;27;45224;-62
2023/08/05 08:26:35;;;;;;;2.20;1.27;;;22.40;99.90;;;;;;5105901;27;46237;-61
2023/08/05 08:29:01;;;;;;;1.30;0.90;;;22.40;99.90;;;;;;5105432;27;45152;-61
2023/08/05 08:31:30;;;;;;;3.40;1.13;;;22.40;99.90;;;;;;5105576;27;45197;-61
2023/08/05 08:33:57;;;;;;;2.40;1.13;;;22.40;99.90;;;;;;5105796;27;45420;-61
2023/08/05 08:36:25;;;;;;;1.38;0.88;;;22.30;99.90;;;;;;5106164;27;45987;-61
2023/08/05 08:38:52;;;;;;;1.13;0.73;;;22.30;99.90;;;;;;5105200;27;45268;-61
2023/08/05 08:41:18;;;;;;;1.23;0.93;;;22.30;99.90;;;;;;5117526;27;45201;-62
2023/08/05 08:43:47;;;;;;;2.97;0.90;;;22.30;99.90;;;;;;5115620;27;45421;-61
2023/08/05 08:46:15;;;;;;;1.67;1.02;;;22.30;99.90;;;;;;5110450;27;47011;-61
2023/08/05 08:48:44;;;;;;;1.27;0.95;;;22.30;99.90;;;;;;5111994;27;45654;-61
2023/08/05 08:51:12;;;;;;;0.98;0.88;;;22.30;99.90;;;;;;5106721;27;45275;-61
2023/08/05 08:53:43;;;;;;;2.53;1.20;;;22.30;99.90;;;;;;5108183;27;45329;-61
2023/08/05 08:56:10;;;;;;;2.25;1.00;;;22.30;99.90;;;;;;5108700;27;46829;-61
2023/08/05 08:58:37;;;;;;;1.42;0.95;;;22.30;99.90;;;;;;5111570;27;45105;-62
2023/08/05 09:01:05;;;;;;;2.00;1.00;;;22.30;99.90;;;;;;5104279;27;45103;-61
2023/08/05 09:03:34;;;;;;;1.10;1.00;;;22.30;99.90;;;;;;5110686;27;45038;-61
2023/08/05 09:06:01;;;;;;;2.22;1.17;;;22.30;99.90;;;;;;5116707;27;45289;-61
2023/08/05 09:08:29;;;;;;;1.70;1.17;;;22.30;99.90;;;;;;5111778;27;45244;-61
2023/08/05 09:10:58;;;;;;;1.90;0.90;;;22.30;99.90;;;;;;5104418;27;45144;-62
2023/08/05 09:13:25;;;;;;;1.33;1.00;;;22.30;99.90;;;;;;5097661;27;45100;-62
2023/08/05 09:15:52;;;;;;;1.60;1.13;;;22.30;99.90;;;;;;5105491;27;46689;-61
2023/08/05 09:18:19;;;;;;;1.10;0.85;;;22.30;99.90;;;;;;5105316;27;45444;-61
2023/08/05 09:20:49;;;;;;;0.80;0.80;;;22.30;99.90;;;;;;5117525;27;45399;-62
2023/08/05 09:23:16;;;;;;;1.38;0.98;;;22.30;99.90;;;;;;5105027;27;45276;-61
2023/08/05 09:25:47;;;;;;;1.40;0.90;;;22.30;99.90;;;;;;5105114;27;46218;-62
2023/08/05 09:28:30;;;;;;;1.00;0.90;;;22.30;99.90;;;;;;5107015;27;45205;-61
2023/08/05 09:31:12;;;;;;;1.13;0.95;;;22.30;99.90;;;;;;5108185;27;45262;-62
2023/08/05 09:33:40;;;;;;;1.08;0.80;;;22.30;99.90;;;;;;5098952;27;45150;-61
2023/08/05 09:36:11;;;;;;;1.13;0.90;;;22.40;99.90;;;;;;5104805;27;45218;-61
2023/08/05 09:38:39;;;;;;;1.10;1.00;;;22.40;99.90;;;;;;5104429;27;45893;-62
2023/08/05 09:41:06;;;;;;;1.02;0.88;;;22.40;99.90;;;;;;5103566;27;45225;-62
2023/08/05 09:43:35;;;;;;;1.20;0.82;;;22.40;99.90;;;;;;5105314;27;45165;-61
2023/08/05 09:46:04;;;;;;;0.95;0.90;;;22.40;99.90;;;;;;5104677;27;45197;-62
2023/08/05 09:48:39;;;;;;;1.92;0.90;;;22.40;99.90;;;;;;5105148;27;45532;-61
2023/08/05 09:51:07;;;;;;;1.67;0.93;;;22.40;99.90;;;;;;5104156;27;45119;-61
2023/08/05 09:53:36;;;;;;;0.90;0.82;;;22.40;99.90;;;;;;5104496;27;45339;-61
2023/08/05 09:56:06;;;;;;;1.80;1.00;;;22.40;99.90;;;;;;5103743;27;45373;-61
2023/08/05 09:58:35;;;;;;;1.48;0.85;;;22.40;99.90;;;;;;5104667;27;45149;-61
2023/08/05 10:01:07;;;;;;;1.33;0.90;;;22.30;99.90;;;;;;5104192;27;45350;-61
2023/08/05 10:03:36;;;;;;;1.17;0.80;;;22.30;99.90;;;;;;5104740;27;45252;-62
2023/08/05 10:06:05;;;;;;;1.15;0.90;;;22.40;99.90;;;;;;5104446;27;47807;-61
2023/08/05 10:08:35;;;;;;;1.15;0.88;;;22.30;99.90;;;;;;5104376;27;45298;-61
2023/08/05 10:11:02;;;;;;;0.85;0.85;;;22.30;99.90;;;;;;5102819;27;45175;-61
2023/08/05 10:13:32;;;;;;;0.80;0.80;;;22.30;99.90;;;;;;5102237;27;45359;-61
2023/08/05 10:16:01;;;;;;;1.13;0.75;;;22.30;99.90;;;;;;5103869;27;45255;-62
2023/08/05 10:18:27;;;;;;;1.05;0.82;;;22.30;99.90;;;;;;5104447;27;45176;-61
2023/08/05 10:20:54;;;;;;;1.88;1.00;;;22.30;99.90;;;;;;5103827;27;45230;-61
2023/08/05 10:23:25;;;;;;;1.08;0.98;;;22.30;99.90;;;;;;5104177;27;45142;-61
2023/08/05 10:25:59;;;;;;;1.58;1.02;;;22.40;99.90;;;;;;5104023;27;45241;-61
2023/08/05 10:28:46;;;;;;;1.13;0.85;;;22.40;99.90;;;;;;5106656;27;45137;-61
2023/08/05 10:31:31;;;;;;;1.05;0.88;;;22.40;99.90;;;;;;5097111;27;45272;-61
2023/08/05 10:34:11;;;;;;;0.98;0.70;;;22.40;99.90;;;;;;5104627;27;45286;-61
2023/08/05 10:36:43;;;;;;;1.27;0.90;;;22.40;99.90;;;;;;5097928;27;46226;-61
2023/08/05 10:39:43;;;;;;;2.28;0.85;;;22.40;99.90;;;;;;5103754;27;45188;-61
2023/08/05 10:42:21;;;;;;;1.00;0.80;;;22.40;99.90;;;;;;5101551;27;45147;-61
2023/08/05 10:44:50;;;;;;;0.80;0.70;;;22.40;99.90;;;;;;5104028;27;45062;-61
2023/08/05 10:47:22;;;;;;;0.93;0.77;;;22.40;99.90;;;;;;5103623;27;47475;-61
2023/08/05 10:49:51;;;;;;;0.73;0.70;;;22.40;99.90;;;;;;5105230;27;45613;-62
2023/08/05 10:52:21;;;;;;;1.15;0.70;;;22.40;99.90;;;;;;5103917;27;45250;-61
2023/08/05 10:54:48;;;;;;;1.42;0.80;;;22.40;99.90;;;;;;5106078;27;45107;-61
2023/08/05 10:57:30;;;;;;;1.08;0.85;;;22.40;99.90;;;;;;5103343;27;46519;-61
2023/08/05 11:00:00;;;;;;;0.80;0.80;;;22.40;99.90;;;;;;5112321;27;45196;-61
2023/08/05 11:02:28;;;;;;;0.85;0.80;;;22.40;99.90;;;;;;5102122;27;45276;-61
2023/08/05 11:05:06;;;;;;;0.90;0.70;;;22.40;99.90;;;;;;5103883;27;45377;-61
2023/08/05 11:07:34;;;;;;;1.10;0.90;;;22.40;99.90;;;;;;5105111;27;45426;-61
2023/08/05 11:10:01;;;;;;;1.00;0.90;;;22.40;99.90;;;;;;5101622;27;45322;-61
2023/08/05 11:12:30;;;;;;;1.20;0.90;;;22.40;99.90;;;;;;5108585;27;45339;-61
2023/08/05 11:14:57;;;;;;;1.17;0.80;;;22.40;99.90;;;;;;5103685;27;45614;-61
2023/08/05 11:17:24;;;;;;;1.48;0.95;;;22.30;99.90;;;;;;5094812;27;46271;-61
2023/08/05 11:19:52;;;;;;;2.45;1.08;;;22.30;99.90;;;;;;5103137;27;45311;-61
2023/08/05 11:22:26;;;;;;;1.23;1.00;;;22.30;99.90;;;;;;5110729;27;45197;-61
2023/08/05 11:24:57;;;;;;;0.82;0.80;;;22.30;99.90;;;;;;5103669;27;45315;-61
2023/08/05 11:27:32;;;;;;;1.50;1.10;;;22.30;99.90;;;;;;5101506;27;46209;-61
2023/08/05 11:29:59;;;;;;;1.50;1.10;;;22.30;99.90;;;;;;5110295;27;45157;-62
2023/08/05 11:32:26;;;;;;;0.98;0.82;;;22.40;99.90;;;;;;5102891;27;45117;-61
2023/08/05 11:35:02;;;;;;;2.20;1.02;;;22.30;99.90;;;;;;5103634;27;45161;-61
2023/08/05 11:37:36;;;;;;;1.65;0.90;;;22.40;99.90;;;;;;5102759;27;45133;-61
2023/08/05 11:40:04;;;;;;;1.02;0.90;;;22.30;99.90;;;;;;5103560;27;45331;-61
2023/08/05 11:42:31;;;;;;;2.35;0.90;;;22.30;99.90;;;;;;5104638;27;45203;-60
2023/08/05 11:44:58;;;;;;;0.93;0.80;;;22.40;99.90;;;;;;5106895;27;45135;-61
2023/08/05 11:47:25;;;;;;;1.60;1.02;;;22.40;99.90;;;;;;5102921;27;46265;-60
2023/08/05 11:49:52;;;;;;;1.45;1.20;;;22.40;99.90;;;;;;5111093;27;46348;-62
2023/08/05 11:52:20;;;;;;;0.82;0.80;;;22.40;99.90;;;;;;5102348;27;45304;-62
2023/08/05 11:54:56;;;;;;;0.85;0.82;;;22.40;99.90;;;;;;5117532;27;45344;-61
2023/08/05 11:57:23;;;;;;;0.70;0.70;;;22.40;99.90;;;;;;5102859;27;45198;-61
2023/08/05 11:59:51;;;;;;;0.90;0.90;;;22.40;99.90;;;;;;5101695;27;45473;-61
2023/08/05 12:02:19;;;;;;;1.05;0.80;;;22.40;99.90;;;;;;5102457;27;45317;-61
2023/08/05 12:04:47;;;;;;;1.05;0.82;;;22.40;99.90;;;;;;5103384;27;45067;-61
2023/08/05 12:07:15;;;;;;;1.35;0.88;;;22.40;99.90;;;;;;5102718;27;48898;-62
2023/08/05 12:09:43;;;;;;;0.95;0.80;;;22.40;99.90;;;;;;5102039;27;45264;-62
2023/08/05 12:12:15;;;;;;;1.60;0.85;;;22.40;99.90;;;;;;5102496;27;45217;-62
2023/08/05 12:14:42;;;;;;;0.80;0.70;;;22.40;99.90;;;;;;5110740;27;45172;-61
2023/08/05 12:17:09;;;;;;;0.90;0.73;;;22.40;99.90;;;;;;5101469;27;45224;-61
2023/08/05 12:19:36;;;;;;;0.80;0.80;;;22.40;99.90;;;;;;5102785;27;45141;-62
2023/08/05 12:22:02;;;;;;;0.95;0.80;;;22.50;99.90;;;;;;5102421;27;45187;-61
2023/08/05 12:24:29;;;;;;;1.00;0.88;;;22.50;99.90;;;;;;5102828;27;45031;-61
2023/08/05 12:26:57;;;;;;;0.65;0.65;;;22.40;99.90;;;;;;5101654;27;46347;-61
2023/08/05 12:29:24;;;;;;;0.90;0.80;;;22.40;99.90;;;;;;5102213;27;45248;-62
2023/08/05 12:31:51;;;;;;;0.75;0.75;;;22.40;99.90;;;;;;5101318;27;45250;-61
2023/08/05 12:34:18;;;;;;;1.00;0.77;;;22.40;99.90;;;;;;5102768;27;45119;-61
2023/08/05 12:36:45;;;;;;;1.10;0.90;;;22.40;99.90;;;;;;5109797;27;45400;-61
2023/08/05 12:39:12;;;;;;;1.20;0.85;;;22.40;99.90;;;;;;5107579;27;45409;-61
2023/08/05 12:41:39;;;;;;;0.88;0.82;;;22.40;99.90;;;;;;5107774;27;45266;-62
2023/08/05 12:44:07;;;;;;;0.70;0.70;;;22.40;99.90;;;;;;5105808;27;45062;-61
2023/08/05 12:46:33;;;;;;;0.73;0.70;;;22.40;99.90;;;;;;5105887;27;45272;-61
2023/08/05 12:49:00;;;;;;;1.00;0.90;;;22.40;99.90;;;;;;5114177;27;45195;-62
2023/08/05 12:51:27;;;;;;;0.95;0.85;;;22.40;99.90;;;;;;5105259;27;45196;-61